Terminal Aerodrome Forecast
Issued by NWS

Home | Current Version | Previous Version | Text Only | Print | Product List | Glossary On
Versions: 1 2 3 4 5 6 7 8 9 10 11 12 13
000
FTUS45 KRIW 010532
TAFWRL
TAF
KWRL 010532Z 0106/0206 VRB05KT P6SM VCSH SCT060 BKN080
     FM011200 VRB05KT P6SM BKN080
     FM011500 33012G20KT P6SM SCT070 SCT100
     FM020100 VRB05KT P6SM SCT070 BKN100=

USA.gov is the U.S. government's official web portal to all federal, state and local government web resources and services.